Time;durP1;ratioP1;P1;durP2;ratioP2;P2;SDS_P1;SDS_P2;PMS_P1;PMS_P2;Temp;Humidity;BMP_temperature;BMP_pressure;BME280_temperature;BME280_humidity;BME280_pressure;Samples;Min_cycle;Max_cycle;Signal;HPM_P1;HPM_P2
2022/06/10 00:02:19;;;;;;;16.65;4.95;;;;;;;13.96;100.00;98404.84;5049528;28;20044;-54
2022/06/10 00:04:45;;;;;;;18.60;5.50;;;;;;;13.88;100.00;98409.63;5048685;28;20029;-54
2022/06/10 00:07:10;;;;;;;13.68;4.63;;;;;;;13.93;100.00;98415.50;5050590;28;20460;-55
2022/06/10 00:09:35;;;;;;;19.92;4.90;;;;;;;13.62;100.00;98416.94;5050157;28;20407;-55
2022/06/10 00:12:01;;;;;;;16.02;4.97;;;;;;;13.65;100.00;98416.78;5046230;28;20060;-54
2022/06/10 00:14:26;;;;;;;22.58;5.50;;;;;;;13.65;100.00;98416.78;5048278;28;20029;-54
2022/06/10 00:16:52;;;;;;;15.27;4.93;;;;;;;14.39;100.00;98413.25;5048277;28;20090;-57
2022/06/10 00:19:17;;;;;;;14.38;4.70;;;;;;;14.13;100.00;98421.53;5051969;28;20059;-56
2022/06/10 00:21:43;;;;;;;13.45;4.50;;;;;;;13.87;100.00;98411.38;5046609;28;20036;-54
2022/06/10 00:24:08;;;;;;;13.45;4.30;;;;;;;14.15;100.00;98411.81;5051560;28;20047;-55
2022/06/10 00:26:34;;;;;;;14.65;4.55;;;;;;;14.74;100.00;98412.41;5050027;28;20454;-55
2022/06/10 00:29:01;;;;;;;14.60;4.35;;;;;;;13.93;100.00;98407.63;5051302;28;20502;-56
2022/06/10 00:31:26;;;;;;;16.17;5.50;;;;;;;13.57;100.00;98424.16;5047008;28;20094;-56
2022/06/10 00:33:52;;;;;;;21.48;5.47;;;;;;;13.56;100.00;98425.06;5050872;28;20426;-56
2022/06/10 00:36:19;;;;;;;15.18;5.20;;;;;;;13.59;100.00;98424.94;5049323;28;20048;-55
2022/06/10 00:38:46;;;;;;;17.40;5.35;;;;;;;13.29;100.00;98429.81;5047037;28;20028;-55
2022/06/10 00:41:12;;;;;;;16.02;4.93;;;;;;;13.48;100.00;98440.31;5048615;28;20044;-55
2022/06/10 00:43:38;;;;;;;13.10;4.50;;;;;;;13.10;100.00;98433.25;5049538;28;20526;-56
2022/06/10 00:46:25;;;;;;;16.10;5.32;;;;;;;13.37;100.00;98442.56;5049598;28;20670;-55
2022/06/10 00:49:17;;;;;;;15.48;4.40;;;;;;;13.47;100.00;98438.59;5048993;28;20027;-54
2022/06/10 00:51:47;;;;;;;13.20;4.47;;;;;;;13.80;100.00;98436.22;5049521;28;20060;-56
2022/06/10 00:54:35;;;;;;;11.82;3.80;;;;;;;14.36;100.00;98434.38;5047446;28;20546;-55
2022/06/10 00:57:17;;;;;;;14.55;4.53;;;;;;;13.13;100.00;98436.63;5048941;28;20425;-55
2022/06/10 00:59:53;;;;;;;14.97;4.90;;;;;;;13.27;100.00;98437.72;5047665;28;20025;-55
2022/06/10 01:02:23;;;;;;;18.48;5.35;;;;;;;12.98;100.00;98446.03;5048957;28;20287;-55
2022/06/10 01:04:48;;;;;;;15.70;4.90;;;;;;;12.72;100.00;98451.47;5049349;28;20028;-55
2022/06/10 01:07:18;;;;;;;14.63;4.93;;;;;;;12.82;100.00;98458.91;5049078;28;20047;-55
2022/06/10 01:09:44;;;;;;;12.60;4.65;;;;;;;12.97;100.00;98462.63;5049021;28;20021;-55
2022/06/10 01:12:13;;;;;;;16.05;5.30;;;;;;;12.65;100.00;98460.47;5047670;28;20043;-56
2022/06/10 01:15:11;;;;;;;16.38;5.22;;;;;;;12.76;100.00;98461.81;5048672;28;20028;-55
2022/06/10 01:17:42;;;;;;;16.33;5.10;;;;;;;12.87;100.00;98470.06;5048221;28;20735;-54
2022/06/10 01:20:31;;;;;;;16.95;5.40;;;;;;;13.01;100.00;98461.59;5048414;28;20036;-56
2022/06/10 01:23:15;;;;;;;17.25;4.55;;;;;;;13.30;100.00;98465.53;5048478;28;20052;-55
2022/06/10 01:26:08;;;;;;;15.90;4.55;;;;;;;13.52;100.00;98472.47;5048372;28;20071;-55
2022/06/10 01:29:05;;;;;;;17.52;4.60;;;;;;;12.95;100.00;98462.69;5047632;28;20544;-55
2022/06/10 01:31:46;;;;;;;13.10;4.50;;;;;;;12.93;100.00;98454.06;5047288;28;20420;-55
2022/06/10 01:34:18;;;;;;;16.73;4.78;;;;;;;13.10;100.00;98463.78;5051004;28;20037;-55
2022/06/10 01:37:02;;;;;;;16.95;4.53;;;;;;;13.65;100.00;98458.72;5047987;28;20077;-55
2022/06/10 01:39:30;;;;;;;12.10;4.07;;;;;;;12.90;100.00;98465.53;5049917;28;20052;-55
2022/06/10 01:41:59;;;;;;;14.30;4.75;;;;;;;12.38;100.00;98470.31;5048536;28;20188;-56
2022/06/10 01:44:48;;;;;;;17.05;5.30;;;;;;;12.11;100.00;98481.00;5047279;28;20078;-56
2022/06/10 01:47:25;;;;;;;17.23;4.75;;;;;;;12.39;100.00;98477.25;5049099;28;20137;-55
2022/06/10 01:50:00;;;;;;;19.15;5.00;;;;;;;13.46;100.00;98478.84;5047050;28;20033;-55
2022/06/10 01:52:58;;;;;;;16.80;4.32;;;;;;;13.29;100.00;98488.28;5046491;28;20037;-55
2022/06/10 01:55:31;;;;;;;15.38;4.53;;;;;;;12.85;100.00;98472.72;5047781;28;20049;-55
2022/06/10 01:58:02;;;;;;;15.27;4.53;;;;;;;12.59;100.00;98478.19;5050217;28;20062;-56
2022/06/10 02:00:32;;;;;;;13.30;4.37;;;;;;;12.51;100.00;98478.50;5048104;28;20934;-57
2022/06/10 02:03:11;;;;;;;18.33;4.90;;;;;;;12.53;100.00;98481.91;5046965;28;20532;-55
2022/06/10 02:05:41;;;;;;;10.60;4.15;;;;;;;12.07;100.00;98479.38;5048977;28;20036;-56
2022/06/10 02:08:14;;;;;;;14.57;5.07;;;;;;;12.00;100.00;98488.38;5047473;28;20509;-55
2022/06/10 02:11:12;;;;;;;19.63;5.50;;;;;;;11.93;100.00;98484.34;5045982;28;20099;-56
2022/06/10 02:13:46;;;;;;;17.38;4.97;;;;;;;12.31;100.00;98481.94;5047623;28;20031;-56
2022/06/10 02:16:15;;;;;;;14.82;4.85;;;;;;;12.85;100.00;98492.81;5048878;28;20503;-56
2022/06/10 02:18:50;;;;;;;17.27;4.82;;;;;;;12.71;100.00;98493.41;5047227;28;20090;-54
2022/06/10 02:21:22;;;;;;;14.25;4.47;;;;;;;12.43;100.00;98491.06;5047580;28;20032;-55
2022/06/10 02:23:59;;;;;;;14.60;4.80;;;;;;;12.02;100.00;98498.78;5047854;28;20013;-56
2022/06/10 02:26:28;;;;;;;15.88;4.72;;;;;;;11.89;100.00;98495.75;5047467;28;20051;-55
2022/06/10 02:28:56;;;;;;;16.33;4.78;;;;;;;12.01;100.00;98510.16;5049988;28;20021;-54
2022/06/10 02:31:52;;;;;;;15.02;4.90;;;;;;;12.14;100.00;98512.22;5051364;28;20049;-55
2022/06/10 02:34:18;;;;;;;20.75;4.85;;;;;;;11.86;100.00;98515.03;5050343;28;20049;-55
2022/06/10 02:36:59;;;;;;;16.70;5.03;;;;;;;11.91;100.00;98520.09;5053098;28;20049;-54
2022/06/10 02:39:38;;;;;;;17.88;5.20;;;;;;;12.31;100.00;98515.94;5050752;28;20977;-56
2022/06/10 02:42:12;;;;;;;16.20;5.07;;;;;;;11.84;100.00;98522.09;5050831;28;20095;-54
2022/06/10 02:44:47;;;;;;;16.00;5.40;;;;;;;11.48;100.00;98526.91;5051140;28;20020;-53
2022/06/10 02:47:18;;;;;;;16.63;5.22;;;;;;;11.79;100.00;98523.19;5050345;28;20037;-54
2022/06/10 02:49:44;;;;;;;16.83;5.37;;;;;;;12.31;100.00;98523.78;5053180;28;20063;-55
2022/06/10 02:52:13;;;;;;;17.98;5.32;;;;;;;12.18;100.00;98523.44;5050110;28;20456;-56
2022/06/10 02:54:39;;;;;;;17.95;4.85;;;;;;;12.28;100.00;98531.78;5052541;28;20021;-54
2022/06/10 02:57:15;;;;;;;14.95;4.45;;;;;;;11.75;100.00;98536.34;5050910;28;20040;-55
2022/06/10 03:02:36;;;;;;;17.83;5.18;;;;;;;11.33;100.00;98551.81;5052369;28;20047;-54
2022/06/10 03:05:28;;;;;;;14.23;4.53;;;;;;;11.38;100.00;98557.75;5052528;28;20021;-54
2022/06/10 03:08:15;;;;;;;18.00;5.10;;;;;;;11.42;100.00;98563.72;5052574;28;20037;-56
2022/06/10 03:10:54;;;;;;;17.83;5.32;;;;;;;11.25;100.00;98562.53;5048406;28;20040;-55
2022/06/10 03:13:33;;;;;;;16.85;5.13;;;;;;;11.51;100.00;98560.78;5049952;28;20082;-55
2022/06/10 03:16:20;;;;;;;15.63;5.57;;;;;;;11.14;100.00;98568.13;5051252;28;20083;-55
2022/06/10 03:19:01;;;;;;;19.35;5.63;;;;;;;11.36;100.00;98576.06;5049662;28;20096;-54
2022/06/10 03:21:32;;;;;;;15.00;4.95;;;;;;;11.17;100.00;98573.25;5052438;28;20058;-55
2022/06/10 03:24:10;;;;;;;14.67;4.83;;;;;;;11.24;100.00;98570.41;5051102;28;20083;-54
2022/06/10 03:26:36;;;;;;;21.77;5.75;;;;;;;11.33;100.00;98570.09;5048211;28;20624;-54
2022/06/10 03:29:19;;;;;;;20.25;5.30;;;;;;;11.69;100.00;98562.72;5051340;28;20053;-55
2022/06/10 03:31:58;;;;;;;16.75;4.68;;;;;;;11.86;100.00;98550.78;5048609;28;20047;-55
2022/06/10 03:34:33;;;;;;;12.88;4.57;;;;;;;10.72;100.00;98567.81;5052417;28;20102;-55
2022/06/10 03:37:00;;;;;;;15.27;5.00;;;;;;;10.95;100.00;98567.91;5051779;28;20438;-55
2022/06/10 03:39:27;;;;;;;18.65;5.03;;;;;;;11.27;100.00;98576.41;5048906;28;20530;-55
2022/06/10 03:42:15;;;;;;;14.18;4.55;;;;;;;11.87;100.00;98570.78;5048840;28;20102;-54
2022/06/10 03:44:42;;;;;;;18.17;5.00;;;;;;;12.32;100.00;98578.66;5050621;28;20032;-54
2022/06/10 03:47:15;;;;;;;15.85;4.20;;;;;;;12.29;100.00;98568.31;5052911;28;20028;-55
2022/06/10 03:49:54;;;;;;;14.20;4.10;;;;;;;12.15;100.00;98568.88;5049645;28;20473;-54
2022/06/10 03:52:22;;;;;;;14.50;5.10;;;;;;;11.59;100.00;98577.00;5051149;28;20131;-55
2022/06/10 03:54:47;;;;;;;13.50;4.85;;;;;;;11.67;100.00;98569.75;5064866;28;20033;-55
2022/06/10 03:57:14;;;;;;;14.38;4.80;;;;;;;11.42;100.00;98579.38;5049909;28;20033;-55
2022/06/10 03:59:39;;;;;;;14.82;5.00;;;;;;;11.51;100.00;98579.91;5051033;28;20032;-57
2022/06/10 04:02:05;;;;;;;18.17;5.22;;;;;;;11.70;100.00;98579.25;5049026;28;20081;-54
2022/06/10 04:04:30;;;;;;;16.60;4.70;;;;;;;12.17;100.00;98588.84;5050416;28;20047;-54
2022/06/10 04:06:55;;;;;;;16.60;4.30;;;;;;;12.99;100.00;98589.13;5049501;28;20491;-56
2022/06/10 04:09:21;;;;;;;13.88;4.63;;;;;;;11.76;100.00;98590.34;5048164;28;20139;-54
2022/06/10 04:11:46;;;;;;;14.20;4.65;;;;;;;12.05;100.00;98595.41;5048471;28;20051;-54
2022/06/10 04:14:11;;;;;;;15.50;4.75;;;;;;;12.66;100.00;98586.94;5050858;28;20033;-57
2022/06/10 04:16:37;;;;;;;18.92;5.10;;;;;;;13.33;100.00;98592.97;5050383;28;20072;-55
2022/06/10 04:19:02;;;;;;;18.98;5.10;;;;;;;14.16;100.00;98582.28;5050706;28;20024;-54
2022/06/10 04:21:28;;;;;;;15.82;5.03;;;;;;;13.48;100.00;98587.91;5048814;28;20060;-54
2022/06/10 04:23:53;;;;;;;14.73;4.75;;;;;;;14.34;100.00;98588.44;5049240;28;20446;-54
2022/06/10 04:26:19;;;;;;;19.02;4.78;;;;;;;14.95;100.00;98578.56;5050144;28;20037;-56
2022/06/10 04:28:44;;;;;;;16.38;4.60;;;;;;;15.74;100.00;98578.91;5051130;28;21012;-55
2022/06/10 04:31:09;;;;;;;18.25;4.88;;;;;;;15.21;100.00;98583.34;5047063;28;20040;-56
2022/06/10 04:33:35;;;;;;;15.95;4.88;;;;;;;15.18;100.00;98590.53;5049340;28;20033;-55
2022/06/10 04:36:01;;;;;;;16.85;4.70;;;;;;;15.97;100.00;98585.59;5048859;28;20043;-55
2022/06/10 04:38:27;;;;;;;17.67;4.90;;;;;;;16.32;100.00;98584.56;5048273;28;20025;-56
2022/06/10 04:40:53;;;;;;;11.10;3.92;;;;;;;15.80;100.00;98591.72;5046433;28;20109;-55
2022/06/10 04:43:19;;;;;;;16.13;4.90;;;;;;;15.15;100.00;98602.06;5048838;28;20091;-55
2022/06/10 04:45:49;;;;;;;16.80;5.07;;;;;;;15.37;100.00;98603.59;5049127;28;20861;-54
2022/06/10 04:48:16;;;;;;;18.42;5.32;;;;;;;14.93;100.00;98607.53;5049411;28;20446;-54
2022/06/10 04:50:43;;;;;;;13.65;4.78;;;;;;;15.70;100.00;98598.38;5046470;28;20033;-54
2022/06/10 04:53:08;;;;;;;15.05;4.15;;;;;;;16.53;100.00;98593.94;5050026;28;20044;-54
2022/06/10 04:55:34;;;;;;;15.15;4.80;;;;;;;17.64;100.00;98591.97;5050012;28;20138;-54
2022/06/10 04:57:59;;;;;;;14.75;4.63;;;;;;;17.77;100.00;98590.25;5048985;28;20025;-55
2022/06/10 05:00:29;;;;;;;11.10;4.00;;;;;;;19.91;100.00;98591.44;5046827;28;20028;-54
2022/06/10 05:02:55;;;;;;;11.85;3.97;;;;;;;21.96;100.00;98590.44;5048712;28;20053;-55
2022/06/10 05:05:21;;;;;;;11.15;3.90;;;;;;;22.03;100.00;98596.13;5049200;28;20021;-56
2022/06/10 05:07:47;;;;;;;10.18;4.07;;;;;;;21.90;93.01;98596.25;5050386;28;20166;-55
2022/06/10 05:10:14;;;;;;;9.85;3.90;;;;;;;22.71;85.53;98596.91;5044885;28;20045;-55
2022/06/10 05:12:39;;;;;;;10.02;4.18;;;;;;;21.82;84.95;98598.66;5049630;28;20405;-54
2022/06/10 05:15:05;;;;;;;9.32;3.88;;;;;;;24.27;72.49;98598.00;5048352;28;20471;-55
2022/06/10 05:17:31;;;;;;;10.32;3.85;;;;;;;24.12;69.83;98596.69;5048609;28;20077;-56
2022/06/10 05:19:56;;;;;;;14.43;5.30;;;;;;;24.96;66.70;98594.50;5046351;28;20017;-55
2022/06/10 05:22:22;;;;;;;9.48;3.88;;;;;;;27.23;58.64;98602.38;5048873;28;20097;-57
2022/06/10 05:24:47;;;;;;;8.57;3.80;;;;;;;24.84;60.65;98606.28;5051686;28;20119;-55
2022/06/10 05:27:12;;;;;;;8.93;4.20;;;;;;;25.15;63.78;98608.84;5048469;28;20072;-55
2022/06/10 05:29:38;;;;;;;11.38;4.28;;;;;;;26.55;58.68;98609.03;5049701;28;20380;-55
2022/06/10 05:32:04;;;;;;;6.93;3.78;;;;;;;28.75;50.74;98601.97;5048173;28;20032;-54
2022/06/10 05:34:44;;;;;;;9.18;4.10;;;;;;;25.06;59.63;98605.19;5049646;28;20036;-56
2022/06/10 05:37:11;;;;;;;9.38;4.25;;;;;;;27.47;53.64;98610.63;5053900;28;20411;-55
2022/06/10 05:39:36;;;;;;;9.10;4.50;;;;;;;27.63;51.79;98607.25;5047456;28;20116;-56
2022/06/10 05:42:05;;;;;;;7.60;4.25;;;;;;;29.67;48.87;98609.91;5047489;28;20047;-55
2022/06/10 05:44:35;;;;;;;11.85;4.20;;;;;;;29.36;48.29;98610.59;5050757;28;20559;-55
2022/06/10 05:47:01;;;;;;;8.90;4.55;;;;;;;29.69;48.85;98611.41;5050660;28;20094;-56
2022/06/10 05:49:28;;;;;;;9.07;4.07;;;;;;;29.97;46.84;98616.44;5047718;28;20040;-55
2022/06/10 05:51:54;;;;;;;7.28;4.00;;;;;;;27.11;49.65;98616.00;5048806;28;20719;-56
2022/06/10 05:54:19;;;;;;;11.05;3.78;;;;;;;29.50;48.74;98604.56;5048132;28;20129;-56
2022/06/10 05:56:45;;;;;;;5.80;3.58;;;;;;;30.74;44.81;98608.56;5048402;28;20040;-55
2022/06/10 05:59:11;;;;;;;10.10;4.03;;;;;;;28.91;46.59;98615.41;5048421;28;20032;-56
2022/06/10 06:01:37;;;;;;;6.97;4.00;;;;;;;29.52;45.87;98610.59;5048861;28;20087;-55
2022/06/10 06:04:03;;;;;;;9.43;4.00;;;;;;;29.24;47.50;98609.25;5049616;28;20509;-55
2022/06/10 06:06:29;;;;;;;6.45;3.40;;;;;;;29.71;46.20;98612.09;5051070;28;20093;-55
2022/06/10 06:08:54;;;;;;;7.57;3.50;;;;;;;28.49;47.73;98612.72;5052399;28;20708;-55
2022/06/10 06:11:19;;;;;;;11.05;3.95;;;;;;;30.45;46.13;98614.59;5051700;28;20124;-55
2022/06/10 06:13:45;;;;;;;7.07;3.70;;;;;;;29.26;46.82;98607.22;5049000;28;20442;-54
2022/06/10 06:16:16;;;;;;;9.52;4.10;;;;;;;29.54;45.93;98610.44;5049248;28;20044;-56
2022/06/10 06:18:42;;;;;;;;;;;;;;;30.41;43.04;98620.53;5052081;28;20032;-56
2022/06/10 06:21:07;;;;;;;9.98;3.60;;;;;;;30.27;44.67;98627.44;5050366;28;19924;-55
2022/06/10 06:23:33;;;;;;;9.40;4.20;;;;;;;29.33;46.50;98619.81;5050265;28;20140;-55
2022/06/10 06:25:58;;;;;;;6.28;3.22;;;;;;;30.30;45.45;98627.09;5053180;28;20088;-56
2022/06/10 06:28:24;;;;;;;8.20;3.70;;;;;;;30.78;43.82;98630.59;5052456;28;20417;-55
2022/06/10 06:30:50;;;;;;;9.25;4.18;;;;;;;29.24;44.61;98626.19;5049043;28;20044;-56
2022/06/10 06:33:16;;;;;;;6.97;3.78;;;;;;;28.74;46.35;98622.56;5051465;28;20079;-56
2022/06/10 06:35:47;;;;;;;7.72;3.58;;;;;;;31.78;42.02;98621.63;5052325;28;20041;-55
2022/06/10 06:38:13;;;;;;;7.28;3.63;;;;;;;28.38;47.69;98624.59;5051505;28;20052;-56
2022/06/10 06:40:41;;;;;;;6.25;3.25;;;;;;;29.82;45.20;98623.53;5048707;28;20029;-56
2022/06/10 06:43:08;;;;;;;6.00;3.53;;;;;;;28.31;48.88;98623.59;5052430;28;20025;-55
2022/06/10 06:45:34;;;;;;;7.15;4.18;;;;;;;27.79;49.77;98622.59;5051249;28;20043;-55
2022/06/10 06:48:01;;;;;;;6.22;3.28;;;;;;;30.71;45.22;98624.22;5053014;28;20108;-55
2022/06/10 06:50:29;;;;;;;5.97;3.10;;;;;;;30.42;45.83;98619.50;5047804;28;20028;-58
2022/06/10 06:52:54;;;;;;;7.07;3.47;;;;;;;27.80;48.98;98620.75;5051147;28;20017;-55
2022/06/10 06:55:20;;;;;;;7.43;3.35;;;;;;;29.07;47.74;98619.94;5050554;28;20025;-56
2022/06/10 06:57:46;;;;;;;7.32;3.08;;;;;;;30.82;44.87;98620.28;5051283;28;20021;-56
2022/06/10 07:00:14;;;;;;;4.88;2.95;;;;;;;31.06;43.81;98620.19;5049509;28;20031;-56
2022/06/10 07:02:40;;;;;;;5.65;3.05;;;;;;;31.27;43.30;98619.50;5050391;28;20124;-56
2022/06/10 07:05:06;;;;;;;6.35;2.90;;;;;;;32.63;40.15;98614.09;5052121;28;20108;-57
2022/06/10 07:07:32;;;;;;;6.07;2.80;;;;;;;30.86;44.14;98621.59;5051839;28;20432;-57
2022/06/10 07:09:57;;;;;;;8.85;3.95;;;;;;;32.20;41.02;98622.03;5051034;28;20523;-56
2022/06/10 07:12:23;;;;;;;6.90;2.90;;;;;;;31.85;41.90;98627.09;5051239;28;20040;-56
2022/06/10 07:14:48;;;;;;;8.80;3.47;;;;;;;30.07;42.66;98626.97;5048612;28;20130;-56
2022/06/10 07:17:14;;;;;;;5.97;3.00;;;;;;;28.20;47.46;98632.75;5049676;28;20040;-56
2022/06/10 07:19:40;;;;;;;9.52;3.03;;;;;;;29.32;46.88;98623.53;5051395;28;20033;-56
2022/06/10 07:22:06;;;;;;;9.00;3.20;;;;;;;30.68;44.19;98630.00;5048236;28;20090;-56
2022/06/10 07:24:32;;;;;;;8.25;2.80;;;;;;;30.88;42.73;98625.81;5050653;28;20462;-56
2022/06/10 07:27:00;;;;;;;7.88;3.10;;;;;;;29.60;43.12;98628.56;5049834;28;20047;-57
2022/06/10 07:29:29;;;;;;;6.13;2.70;;;;;;;32.72;39.94;98621.06;5050037;28;20028;-57
2022/06/10 07:31:54;;;;;;;5.57;2.70;;;;;;;32.63;39.16;98625.75;5051746;28;20712;-56
2022/06/10 07:34:19;;;;;;;6.68;2.55;;;;;;;31.49;40.47;98622.41;5051365;28;20052;-57
2022/06/10 07:36:46;;;;;;;5.32;2.58;;;;;;;31.60;42.67;98619.25;5050002;28;20037;-56
2022/06/10 07:39:11;;;;;;;4.90;2.58;;;;;;;30.33;40.32;98629.47;5049159;28;20376;-56
2022/06/10 07:44:23;;;;;;;5.28;2.50;;;;;;;31.83;40.09;98624.59;5051100;28;20173;-56
2022/06/10 07:46:50;;;;;;;4.38;2.33;;;;;;;33.33;37.80;98626.09;5049706;28;20657;-57
2022/06/10 07:49:16;;;;;;;8.10;2.72;;;;;;;30.69;42.21;98621.72;5050860;28;20087;-56
2022/06/10 07:51:41;;;;;;;6.10;2.53;;;;;;;33.82;38.14;98608.19;5048779;28;20062;-56
2022/06/10 07:54:07;;;;;;;5.15;2.45;;;;;;;33.00;39.14;98606.81;5050640;28;20354;-56
2022/06/10 07:56:32;;;;;;;6.25;2.90;;;;;;;31.49;39.59;98601.66;5051481;28;20067;-57
2022/06/10 07:58:59;;;;;;;5.30;2.60;;;;;;;34.43;35.97;98612.94;5050014;28;20103;-55
2022/06/10 08:01:26;;;;;;;5.10;2.38;;;;;;;32.28;38.62;98600.34;5047622;28;20029;-56
2022/06/10 08:03:52;;;;;;;4.38;2.38;;;;;;;33.56;37.05;98603.38;5048671;28;20028;-56
2022/06/10 08:06:20;;;;;;;5.65;2.33;;;;;;;31.53;40.37;98612.09;5050304;28;20071;-56
2022/06/10 08:08:45;;;;;;;5.00;2.35;;;;;;;29.82;41.49;98607.41;5048761;28;20927;-57
2022/06/10 08:11:11;;;;;;;5.50;2.40;;;;;;;29.81;42.19;98600.34;5048903;28;20048;-56
2022/06/10 08:13:36;;;;;;;7.53;2.45;;;;;;;31.26;40.26;98604.34;5050605;28;20170;-56
2022/06/10 08:16:03;;;;;;;5.32;2.45;;;;;;;33.77;37.84;98605.25;5049602;28;20487;-57
2022/06/10 08:18:31;;;;;;;5.88;2.45;;;;;;;31.27;38.98;98603.34;5049214;28;20476;-56
2022/06/10 08:24:01;;;;;;;4.38;2.20;;;;;;;33.36;35.56;98592.41;5011696;28;20038;-57
2022/06/10 08:26:28;;;;;;;4.43;2.17;;;;;;;33.66;35.68;98597.69;5011542;28;20056;-56
2022/06/10 08:28:54;;;;;;;9.70;2.45;;;;;;;34.10;34.55;98593.78;5029510;28;20076;-57
2022/06/10 08:31:20;;;;;;;3.65;1.90;;;;;;;33.82;34.99;98600.09;5049544;28;20068;-57
2022/06/10 08:33:46;;;;;;;5.32;2.00;;;;;;;31.19;36.79;98600.72;5049280;28;20021;-56
2022/06/10 08:36:13;;;;;;;5.55;2.05;;;;;;;35.36;31.95;98603.41;5050200;28;20039;-57
2022/06/10 08:38:42;;;;;;;5.82;2.35;;;;;;;29.99;36.75;98603.66;5048354;28;20907;-57
2022/06/10 08:41:27;;;;;;;4.15;2.00;;;;;;;32.51;35.03;98604.78;5049593;28;20041;-56
2022/06/10 08:44:09;;;;;;;3.97;2.10;;;;;;;34.92;33.56;98608.31;5049824;28;20837;-56
2022/06/10 08:46:53;;;;;;;4.00;2.00;;;;;;;30.46;37.96;98602.84;5050413;28;20068;-57
2022/06/10 08:49:45;;;;;;;4.90;2.25;;;;;;;28.95;41.79;98606.03;5049050;28;20027;-56
2022/06/10 08:52:17;;;;;;;5.20;2.30;;;;;;;29.90;40.49;98604.69;5048979;28;20040;-57
2022/06/10 08:55:18;;;;;;;9.25;2.55;;;;;;;30.99;39.14;98599.50;5048858;28;20471;-56
2022/06/10 08:57:46;;;;;;;5.18;2.30;;;;;;;30.63;39.17;98606.28;5012605;28;20059;-56
2022/06/10 09:00:18;;;;;;;4.88;2.17;;;;;;;30.05;41.91;98597.59;5049215;28;20095;-56
2022/06/10 09:03:00;;;;;;;5.20;2.38;;;;;;;29.78;41.38;98594.28;5049892;28;20514;-56
2022/06/10 09:05:33;;;;;;;6.57;2.30;;;;;;;30.70;38.66;98598.34;5049584;28;20124;-56
2022/06/10 09:08:06;;;;;;;5.95;2.50;;;;;;;31.61;36.76;98599.34;5051144;28;20056;-56
2022/06/10 09:10:53;;;;;;;6.35;2.30;;;;;;;32.25;36.50;98595.31;5047354;28;20040;-58
2022/06/10 09:13:30;;;;;;;5.60;2.17;;;;;;;32.05;37.37;98595.88;5047883;28;20557;-57
2022/06/10 09:16:20;;;;;;;3.90;1.80;;;;;;;31.80;38.28;98602.53;5049218;28;20041;-58
2022/06/10 09:18:57;;;;;;;5.13;2.47;;;;;;;30.87;39.87;98599.91;5048869;28;20037;-56
2022/06/10 09:21:43;;;;;;;3.92;2.00;;;;;;;29.02;41.38;98606.19;5049000;28;20048;-57
2022/06/10 09:24:17;;;;;;;5.68;2.45;;;;;;;27.13;46.16;98599.81;5049354;28;20162;-58
2022/06/10 09:26:50;;;;;;;7.47;2.58;;;;;;;27.56;46.63;98597.31;5048691;28;20138;-56
2022/06/10 09:29:16;;;;;;;5.72;2.60;;;;;;;26.94;46.82;98598.09;5050455;28;20463;-57
2022/06/10 09:32:13;;;;;;;6.28;2.60;;;;;;;28.68;44.76;98600.94;5048608;28;20032;-57
2022/06/10 09:35:08;;;;;;;5.75;2.60;;;;;;;30.03;39.60;98594.22;5021085;28;20041;-55
2022/06/10 09:37:45;;;;;;;7.88;2.70;;;;;;;31.26;38.20;98601.66;5048784;28;20127;-56
2022/06/10 09:43:22;;;;;;;6.63;2.58;;;;;;;33.50;34.28;98590.66;5048581;28;20129;-56
2022/06/10 09:46:07;;;;;;;4.80;2.28;;;;;;;32.30;34.12;98587.50;5047509;28;20040;-56
2022/06/10 09:48:50;;;;;;;6.65;2.65;;;;;;;32.02;35.29;98596.25;5048428;28;20059;-56
2022/06/10 09:51:22;;;;;;;4.85;2.05;;;;;;;32.61;34.78;98592.69;5048458;28;20048;-56
2022/06/10 09:54:05;;;;;;;5.63;2.10;;;;;;;30.49;36.88;98601.63;5049118;28;20052;-56
2022/06/10 09:56:36;;;;;;;5.88;2.20;;;;;;;31.30;37.44;98603.00;5047213;28;20403;-56
2022/06/10 09:59:25;;;;;;;4.40;2.15;;;;;;;29.84;40.15;98602.69;5050861;28;20025;-56
2022/06/10 10:02:02;;;;;;;10.48;2.53;;;;;;;29.36;41.73;98600.69;5048370;28;20087;-57
2022/06/10 10:04:51;;;;;;;6.70;2.55;;;;;;;27.98;43.80;98599.28;5048032;28;20437;-56
2022/06/10 10:07:50;;;;;;;5.57;2.40;;;;;;;27.27;45.24;98601.09;5041803;28;20566;-58
2022/06/10 10:10:37;;;;;;;6.40;2.58;;;;;;;26.42;45.54;98597.88;5051606;28;20032;-58
2022/06/10 10:13:21;;;;;;;5.75;2.50;;;;;;;28.42;42.59;98599.16;5047873;28;20398;-57
2022/06/10 10:16:23;;;;;;;8.45;2.92;;;;;;;29.07;38.85;98586.88;5048185;28;20660;-59
2022/06/10 10:19:08;;;;;;;6.32;2.50;;;;;;;30.76;37.22;98594.91;5047696;28;20033;-56
2022/06/10 10:21:51;;;;;;;8.43;2.45;;;;;;;29.86;37.42;98584.53;5048058;28;20523;-56
2022/06/10 10:24:24;;;;;;;6.70;2.45;;;;;;;31.77;38.04;98578.66;5047503;28;20032;-56
2022/06/10 10:26:51;;;;;;;6.28;2.45;;;;;;;32.34;37.79;98582.56;5047101;28;20094;-57
2022/06/10 10:29:25;;;;;;;7.53;2.60;;;;;;;31.59;36.34;98581.69;5046878;28;20060;-57
2022/06/10 10:32:19;;;;;;;4.78;2.30;;;;;;;30.96;37.30;98578.34;5046733;28;20163;-57
2022/06/10 10:34:50;;;;;;;6.07;2.33;;;;;;;30.83;38.05;98578.91;5050204;28;20174;-56
2022/06/10 10:37:29;;;;;;;5.35;2.60;;;;;;;31.49;37.41;98574.72;5044395;28;20033;-56
2022/06/10 10:40:05;;;;;;;6.72;2.75;;;;;;;31.22;35.88;98576.09;5046154;28;20074;-56
2022/06/10 10:42:34;;;;;;;7.72;2.30;;;;;;;31.12;35.93;98572.81;5049307;28;20057;-56
2022/06/10 10:45:30;;;;;;;6.13;2.20;;;;;;;30.45;36.75;98576.09;5046642;28;20031;-57
2022/06/10 10:47:59;;;;;;;4.97;2.35;;;;;;;26.79;44.01;98583.56;5048347;28;20794;-56
2022/06/10 10:50:31;;;;;;;6.25;2.53;;;;;;;26.95;45.07;98583.72;5047821;28;20575;-57
2022/06/10 10:52:58;;;;;;;7.30;2.67;;;;;;;26.96;46.46;98574.69;5050090;28;20444;-56
2022/06/10 10:55:36;;;;;;;5.55;2.42;;;;;;;27.21;46.23;98583.78;5049620;28;20037;-56
2022/06/10 10:58:18;;;;;;;6.93;2.55;;;;;;;26.69;45.89;98584.47;5051825;28;20059;-56
2022/06/10 11:00:44;;;;;;;;;;;;;;;26.04;45.44;98583.69;5051700;28;20063;-57
2022/06/10 11:03:50;;;;;;;6.47;2.80;;;;;;;27.81;41.14;98582.22;5052899;28;20011;-57
2022/06/10 11:06:34;;;;;;;7.25;2.58;;;;;;;28.09;40.76;98580.22;5027781;28;20132;-56
2022/06/10 11:09:16;;;;;;;5.45;2.38;;;;;;;26.09;45.91;98586.75;5052900;28;20025;-57
2022/06/10 11:11:43;;;;;;;7.10;2.65;;;;;;;26.03;48.61;98582.00;5052247;28;20123;-56
2022/06/10 11:14:20;;;;;;;8.48;2.97;;;;;;;26.64;48.97;98581.41;5052169;28;20040;-56
2022/06/10 11:16:59;;;;;;;6.93;2.70;;;;;;;25.82;50.61;98577.66;5052042;28;20090;-57
2022/06/10 11:19:33;;;;;;;7.25;2.78;;;;;;;26.89;46.20;98585.19;5051978;28;20032;-58
2022/06/10 11:22:01;;;;;;;7.95;2.70;;;;;;;28.25;42.37;98572.25;5051556;28;20037;-56
2022/06/10 11:24:31;;;;;;;9.30;2.75;;;;;;;29.56;38.61;98571.63;5050505;28;20086;-56
2022/06/10 11:27:01;;;;;;;7.07;2.60;;;;;;;29.07;38.77;98565.41;5049163;28;20052;-56
2022/06/10 11:29:28;;;;;;;8.07;2.88;;;;;;;28.73;39.14;98569.03;5048636;28;20037;-57
2022/06/10 11:32:00;;;;;;;7.72;2.80;;;;;;;27.26;42.94;98569.97;5050307;28;20036;-57
2022/06/10 11:34:33;;;;;;;8.25;2.78;;;;;;;26.51;43.72;98573.72;5050940;28;20021;-55
2022/06/10 11:36:59;;;;;;;6.25;2.47;;;;;;;26.38;44.65;98572.41;5051500;28;20040;-56
2022/06/10 11:39:34;;;;;;;9.00;3.00;;;;;;;26.27;45.85;98576.97;5050495;28;20096;-58
2022/06/10 11:41:59;;;;;;;9.18;3.00;;;;;;;25.99;44.72;98572.56;5048509;28;20041;-57
2022/06/10 11:44:27;;;;;;;9.85;3.10;;;;;;;25.50;45.05;98570.88;5050916;28;20194;-56
2022/06/10 11:46:58;;;;;;;9.52;3.08;;;;;;;26.03;45.53;98560.63;5051602;28;20064;-56
2022/06/10 11:49:31;;;;;;;9.00;2.80;;;;;;;25.10;47.33;98561.19;5051286;28;20031;-57
2022/06/10 11:52:09;;;;;;;9.45;3.25;;;;;;;24.67;46.22;98559.81;5049724;28;20503;-57
2022/06/10 11:54:50;;;;;;;9.77;3.08;;;;;;;25.67;43.36;98565.78;5050128;28;20033;-57
2022/06/10 12:00:19;;;;;;;11.70;3.30;;;;;;;27.02;42.79;98547.31;5048465;28;20878;-56
2022/06/10 12:03:00;;;;;;;10.23;3.28;;;;;;;27.23;43.30;98543.47;5049105;28;20032;-56
2022/06/10 12:05:25;;;;;;;8.63;2.80;;;;;;;27.62;43.34;98543.09;5050216;28;20040;-57